createdAt,value
2022-12-15T00:00:20.535Z,66.20
2022-12-15T00:05:41.067Z,82.60
2022-12-15T00:11:01.171Z,81.45
2022-12-15T00:16:21.838Z,56.00
2022-12-15T00:21:42.125Z,60.13
2022-12-15T00:27:02.778Z,60.60
2022-12-15T00:32:24.698Z,61.20
2022-12-15T00:37:45.296Z,64.15
2022-12-15T00:42:47.752Z,57.28
2022-12-15T00:47:51.424Z,64.70
2022-12-15T00:53:11.847Z,58.63
2022-12-15T00:58:32.025Z,54.03
2022-12-15T01:03:52.706Z,58.63
2022-12-15T01:09:13.719Z,62.47
2022-12-15T01:14:34.042Z,63.70
2022-12-15T01:19:54.485Z,73.57
2022-12-15T01:24:56.280Z,66.25
2022-12-15T01:29:58.215Z,52.30
2022-12-15T01:35:00.088Z,53.28
2022-12-15T01:40:20.582Z,55.08
2022-12-15T01:45:31.597Z,47.80
2022-12-15T01:50:39.843Z,47.88
2022-12-15T01:55:44.457Z,51.15
2022-12-15T02:00:49.915Z,53.67
2022-12-15T02:05:53.347Z,51.67
2022-12-15T02:11:22.261Z,51.25
2022-12-15T02:16:38.681Z,56.95
2022-12-15T02:22:09.531Z,53.63
2022-12-15T02:27:59.285Z,50.35
2022-12-15T02:33:24.124Z,43.25
2022-12-15T02:38:35.133Z,43.17
2022-12-15T02:43:39.066Z,56.50
2022-12-15T02:48:56.144Z,51.33
2022-12-15T02:54:26.498Z,48.65
2022-12-15T02:59:41.137Z,46.35
2022-12-15T03:04:43.545Z,46.20
2022-12-15T03:09:45.357Z,49.33
2022-12-15T03:14:47.189Z,48.13
2022-12-15T03:19:49.644Z,48.40
2022-12-15T03:24:51.891Z,47.85
2022-12-15T03:29:53.812Z,48.92
2022-12-15T03:34:55.642Z,44.58
2022-12-15T03:39:57.494Z,46.67
2022-12-15T03:44:59.281Z,45.35
2022-12-15T03:50:01.118Z,33.85
2022-12-15T03:55:04.461Z,47.83
2022-12-15T04:00:07.247Z,40.10
2022-12-15T04:05:17.840Z,47.33
2022-12-15T04:10:19.754Z,52.72
2022-12-15T04:15:21.782Z,42.28
2022-12-15T04:20:23.593Z,44.33
2022-12-15T04:25:45.238Z,41.72
2022-12-15T04:31:13.470Z,41.78
2022-12-15T04:36:34.810Z,34.28
2022-12-15T04:41:55.566Z,39.38
2022-12-15T04:47:15.949Z,33.95
2022-12-15T04:52:36.625Z,34.63
2022-12-15T04:57:57.184Z,33.72
2022-12-15T05:03:24.056Z,34.60
2022-12-15T05:08:44.806Z,41.17
2022-12-15T05:14:05.421Z,38.72
2022-12-15T05:19:26.045Z,38.00
2022-12-15T05:24:46.530Z,36.10
2022-12-15T05:30:07.143Z,39.80
2022-12-15T05:35:09.001Z,36.80
2022-12-15T05:40:11.199Z,34.28
2022-12-15T05:45:13.050Z,30.00
2022-12-15T05:50:14.961Z,31.73
2022-12-15T05:55:17.595Z,29.85
2022-12-15T06:00:20.648Z,33.15
2022-12-15T06:05:22.811Z,31.42
2022-12-15T06:10:24.669Z,35.78
2022-12-15T06:15:26.495Z,28.83
2022-12-15T06:20:28.364Z,31.30
2022-12-15T06:25:30.188Z,31.75
2022-12-15T06:30:32.280Z,32.95
2022-12-15T06:35:38.691Z,28.92
2022-12-15T06:40:41.162Z,24.95
2022-12-15T06:45:49.719Z,26.60
2022-12-15T06:50:52.515Z,27.33
2022-12-15T06:56:00.624Z,26.60
2022-12-15T07:01:08.110Z,24.50
2022-12-15T07:06:12.846Z,25.48
2022-12-15T07:11:14.747Z,28.98
2022-12-15T07:16:16.650Z,25.17
2022-12-15T07:21:18.641Z,26.80
2022-12-15T07:26:20.516Z,29.25
2022-12-15T07:31:23.041Z,23.48
2022-12-15T07:36:25.333Z,26.05
2022-12-15T07:41:27.787Z,24.90
2022-12-15T07:46:30.153Z,27.58
2022-12-15T07:51:32.052Z,25.70
2022-12-15T07:56:38.994Z,24.85
2022-12-15T08:01:41.866Z,26.45
2022-12-15T08:06:44.168Z,22.77
2022-12-15T08:11:46.124Z,25.52
2022-12-15T08:16:48.247Z,22.42
2022-12-15T08:21:50.710Z,26.35
2022-12-15T08:26:53.113Z,28.85
2022-12-15T08:31:55.091Z,24.13
2022-12-15T08:36:57.023Z,22.85
2022-12-15T08:41:58.967Z,45.83
2022-12-15T08:47:00.957Z,22.85
2022-12-15T08:52:02.897Z,25.35
2022-12-15T08:57:05.510Z,25.33
2022-12-15T09:02:09.865Z,21.75
2022-12-15T09:07:11.880Z,21.38
2022-12-15T09:12:14.223Z,21.15
2022-12-15T09:17:16.226Z,23.08
2022-12-15T09:22:18.177Z,21.70
2022-12-15T09:27:20.462Z,23.77
2022-12-15T09:32:22.639Z,17.58
2022-12-15T09:37:24.456Z,21.45
2022-12-15T09:42:28.563Z,17.73
2022-12-15T09:47:51.520Z,19.17
2022-12-15T09:52:58.375Z,20.70
2022-12-15T09:58:11.089Z,21.67
2022-12-15T10:03:28.811Z,20.25
2022-12-15T10:08:37.107Z,18.45
2022-12-15T10:13:47.690Z,19.27
2022-12-15T10:19:01.041Z,20.75
2022-12-15T10:24:44.351Z,18.20
2022-12-15T10:29:50.817Z,23.33
2022-12-15T10:34:52.962Z,17.67
2022-12-15T10:39:54.846Z,14.93
2022-12-15T10:44:58.431Z,18.48
2022-12-15T10:50:24.735Z,17.48
2022-12-15T10:55:37.194Z,13.60
2022-12-15T11:00:39.208Z,15.30
2022-12-15T11:05:52.688Z,14.75
2022-12-15T11:11:17.944Z,21.90
2022-12-15T11:16:20.176Z,15.82
2022-12-15T11:21:27.918Z,28.02
2022-12-15T11:26:49.021Z,29.08
2022-12-15T11:31:53.131Z,27.88
2022-12-15T11:37:13.472Z,27.67
2022-12-15T11:42:34.164Z,23.65
2022-12-15T11:47:51.061Z,22.00
2022-12-15T11:53:11.553Z,24.52
2022-12-15T11:58:25.479Z,22.23
2022-12-15T12:03:51.920Z,21.88
2022-12-15T12:09:11.215Z,24.73
2022-12-15T12:14:27.839Z,26.05
2022-12-15T12:19:43.172Z,23.73
2022-12-15T12:24:51.191Z,20.23
2022-12-15T12:30:02.503Z,26.65
2022-12-15T12:35:31.433Z,22.23
2022-12-15T12:40:40.821Z,20.52
2022-12-15T12:45:56.095Z,21.08
2022-12-15T12:51:19.321Z,21.50
2022-12-15T12:56:48.730Z,20.83
2022-12-15T13:01:52.638Z,21.83
2022-12-15T13:07:12.784Z,20.58
2022-12-15T13:12:50.819Z,19.30
2022-12-15T13:17:58.548Z,19.70
2022-12-15T13:23:19.659Z,19.52
2022-12-15T13:28:36.597Z,21.90
2022-12-15T13:33:50.444Z,20.55
2022-12-15T13:38:54.955Z,20.77
2022-12-15T13:43:58.662Z,18.90
2022-12-15T13:49:12.792Z,19.35
2022-12-15T13:54:15.606Z,23.35
2022-12-15T13:59:30.641Z,22.92
2022-12-15T14:04:32.701Z,21.48
2022-12-15T14:09:38.564Z,25.30
2022-12-15T14:14:47.301Z,25.63
2022-12-15T14:19:51.480Z,23.70
2022-12-15T14:25:13.630Z,25.60
2022-12-15T14:30:32.943Z,27.38
2022-12-15T14:35:43.399Z,31.80
2022-12-15T14:40:46.887Z,33.35
2022-12-15T14:45:56.779Z,34.72
2022-12-15T14:51:01.675Z,38.33
2022-12-15T14:56:25.744Z,34.70
2022-12-15T15:01:33.639Z,38.97
2022-12-15T15:06:40.315Z,36.72
2022-12-15T15:11:43.101Z,40.70
2022-12-15T15:16:45.549Z,39.97
2022-12-15T15:21:48.069Z,42.97
2022-12-15T15:26:50.040Z,42.58
2022-12-15T15:31:53.411Z,52.90
2022-12-15T15:36:55.203Z,65.72
2022-12-15T15:41:56.981Z,61.05
2022-12-15T15:46:58.848Z,53.80
2022-12-15T15:52:00.807Z,63.53
2022-12-15T15:57:02.748Z,58.50
2022-12-15T16:02:04.683Z,86.78
2022-12-15T16:07:15.486Z,63.47
2022-12-15T16:12:36.030Z,71.93
2022-12-15T16:17:37.887Z,83.15
2022-12-15T16:22:41.998Z,95.43
2022-12-15T16:27:43.809Z,69.15
2022-12-15T16:32:45.915Z,70.53
2022-12-15T16:37:48.260Z,59.58
2022-12-15T16:43:01.370Z,67.78
2022-12-15T16:48:03.310Z,67.22
2022-12-15T16:53:07.506Z,56.05
2022-12-15T16:58:15.797Z,48.75
2022-12-15T17:03:20.035Z,48.27
2022-12-15T17:08:26.453Z,46.92
2022-12-15T17:13:45.332Z,56.05
2022-12-15T17:23:53.073Z,48.90
2022-12-15T17:28:56.212Z,44.63
2022-12-15T17:33:58.475Z,53.47
2022-12-15T17:39:01.508Z,58.60
2022-12-15T17:44:32.230Z,28.85
2022-12-15T17:49:27.742Z,27.70
2022-12-15T17:54:33.940Z,22.90
2022-12-15T17:59:35.784Z,27.40
2022-12-15T18:04:37.618Z,25.33
2022-12-15T18:09:39.513Z,32.60
2022-12-15T18:14:41.295Z,27.35
2022-12-15T18:19:43.361Z,27.92
2022-12-15T18:24:46.224Z,25.70
2022-12-15T18:29:48.102Z,28.70
2022-12-15T18:34:50.641Z,29.90
2022-12-15T18:39:52.876Z,25.88
2022-12-15T18:44:56.701Z,30.42
2022-12-15T18:49:58.549Z,35.75
2022-12-15T18:55:00.454Z,38.03
2022-12-15T19:00:27.940Z,105.15
2022-12-15T19:05:30.081Z,129.63
2022-12-15T19:10:34.665Z,152.65
2022-12-15T19:15:36.479Z,40.50
2022-12-15T19:20:57.083Z,43.33
2022-12-15T19:25:59.282Z,33.72
2022-12-15T19:31:01.793Z,31.80
2022-12-15T19:36:04.311Z,33.33
2022-12-15T19:41:06.571Z,32.67
2022-12-15T19:46:20.613Z,34.90
2022-12-15T19:51:24.374Z,30.33
2022-12-15T19:56:27.018Z,42.10
2022-12-15T20:01:29.183Z,38.70
2022-12-15T20:06:32.013Z,37.97
2022-12-15T20:11:34.601Z,40.47
2022-12-15T20:16:37.070Z,38.95
2022-12-15T20:21:41.444Z,37.58
2022-12-15T20:26:45.851Z,40.65
2022-12-15T20:31:47.986Z,38.55
2022-12-15T20:36:50.927Z,59.92
2022-12-15T20:41:54.183Z,54.38
2022-12-15T20:46:56.425Z,43.75
2022-12-15T20:51:58.452Z,46.03
2022-12-15T20:57:00.625Z,59.22
2022-12-15T21:02:02.647Z,73.03
2022-12-15T21:07:06.174Z,84.10
2022-12-15T21:12:21.218Z,88.90
2022-12-15T21:17:28.747Z,107.53
2022-12-15T21:22:30.648Z,84.40
2022-12-15T21:27:32.486Z,88.88
2022-12-15T21:32:34.291Z,91.25
2022-12-15T21:37:36.666Z,74.22
2022-12-15T21:42:38.881Z,81.00
2022-12-15T21:47:59.585Z,78.38
2022-12-15T21:53:02.155Z,78.43
2022-12-15T21:58:17.551Z,73.10
2022-12-15T22:03:19.492Z,78.88
2022-12-15T22:08:22.450Z,112.45
2022-12-15T22:13:24.358Z,92.78
2022-12-15T22:18:26.186Z,76.00
2022-12-15T22:23:28.008Z,77.45
2022-12-15T22:28:30.275Z,89.80
2022-12-15T22:33:32.701Z,81.72
2022-12-15T22:38:34.970Z,76.22
2022-12-15T22:43:39.528Z,87.93
2022-12-15T22:48:43.709Z,91.10
2022-12-15T22:53:46.006Z,90.10
2022-12-15T22:58:49.523Z,88.78
2022-12-15T23:03:52.409Z,80.72
2022-12-15T23:08:56.296Z,86.82
2022-12-15T23:13:58.340Z,88.85
2022-12-15T23:19:01.763Z,94.35
2022-12-15T23:24:03.711Z,87.07
2022-12-15T23:29:05.548Z,92.53
2022-12-15T23:34:08.697Z,89.18
2022-12-15T23:39:10.547Z,105.90
2022-12-15T23:44:12.521Z,93.90
2022-12-15T23:49:14.314Z,88.28
2022-12-15T23:54:16.093Z,96.53
2022-12-15T23:59:17.879Z,115.45
